createdAt,value
2022-07-26T00:01:06.753Z,29.05
2022-07-26T00:03:39.090Z,29.07
2022-07-26T00:06:11.647Z,29.11
2022-07-26T00:08:44.128Z,29.09
2022-07-26T00:11:16.521Z,29.09
2022-07-26T00:13:49.477Z,29.10
2022-07-26T00:16:21.884Z,29.14
2022-07-26T00:18:54.245Z,29.17
2022-07-26T00:21:26.922Z,29.20
2022-07-26T00:23:59.311Z,29.20
2022-07-26T00:26:31.621Z,29.20
2022-07-26T00:29:05.173Z,29.20
2022-07-26T00:31:37.865Z,29.21
2022-07-26T00:34:10.344Z,29.22
2022-07-26T00:36:44.126Z,29.25
2022-07-26T00:39:16.482Z,29.25
2022-07-26T00:42:24.594Z,29.24
2022-07-26T00:44:56.908Z,29.23
2022-07-26T00:47:29.186Z,29.21
2022-07-26T00:50:01.652Z,29.18
2022-07-26T00:52:33.942Z,29.18
2022-07-26T00:55:07.789Z,29.17
2022-07-26T00:57:41.247Z,29.17
2022-07-26T01:00:16.222Z,29.16
2022-07-26T01:02:48.787Z,29.12
2022-07-26T01:05:21.202Z,29.11
2022-07-26T01:07:54.804Z,29.08
2022-07-26T01:10:29.265Z,28.96
2022-07-26T01:13:01.845Z,28.80
2022-07-26T01:15:34.185Z,28.67
2022-07-26T01:18:06.613Z,28.63
2022-07-26T01:20:39.335Z,28.59
2022-07-26T01:23:11.777Z,28.52
2022-07-26T01:25:46.006Z,28.47
2022-07-26T01:28:21.219Z,28.39
2022-07-26T01:30:53.535Z,28.26
2022-07-26T01:33:28.273Z,28.15
2022-07-26T01:36:00.759Z,28.06
2022-07-26T01:38:33.130Z,28.02
2022-07-26T01:41:05.407Z,28.02
2022-07-26T01:43:37.802Z,28.02
2022-07-26T01:46:11.251Z,27.98
2022-07-26T01:48:44.147Z,27.95
2022-07-26T01:51:22.678Z,27.92
2022-07-26T01:53:54.959Z,27.90
2022-07-26T01:56:27.229Z,27.89
2022-07-26T01:58:59.600Z,27.86
2022-07-26T02:01:39.058Z,27.78
2022-07-26T02:04:32.577Z,27.66
2022-07-26T02:07:03.315Z,27.57
2022-07-26T02:09:40.006Z,27.52
2022-07-26T02:12:13.070Z,27.41
2022-07-26T02:14:45.455Z,27.35
2022-07-26T02:17:18.026Z,27.29
2022-07-26T02:19:50.439Z,27.23
2022-07-26T02:22:23.007Z,27.22
2022-07-26T02:24:55.305Z,27.18
2022-07-26T02:27:27.645Z,27.14
2022-07-26T02:29:59.813Z,27.13
2022-07-26T02:32:30.368Z,27.13
2022-07-26T02:35:02.562Z,27.07
2022-07-26T02:37:42.409Z,27.01
2022-07-26T02:40:19.332Z,26.99
2022-07-26T02:42:52.114Z,27.01
2022-07-26T02:45:24.601Z,27.03
2022-07-26T02:47:57.742Z,27.05
2022-07-26T02:50:31.488Z,27.04
2022-07-26T02:53:03.964Z,27.03
2022-07-26T02:55:36.328Z,26.99
2022-07-26T02:58:08.568Z,26.91
2022-07-26T03:00:40.877Z,26.86
2022-07-26T03:03:14.358Z,26.86
2022-07-26T03:05:46.800Z,26.82
2022-07-26T03:08:17.285Z,26.81
2022-07-26T03:10:49.477Z,26.71
2022-07-26T03:13:21.798Z,26.61
2022-07-26T03:15:52.329Z,26.53
2022-07-26T03:18:24.744Z,26.51
2022-07-26T03:20:55.492Z,26.55
2022-07-26T03:23:28.288Z,26.54
2022-07-26T03:26:01.815Z,26.54
2022-07-26T03:28:35.059Z,26.51
2022-07-26T03:31:07.397Z,26.47
2022-07-26T03:33:37.917Z,26.48
2022-07-26T03:36:15.652Z,26.45
2022-07-26T03:38:48.829Z,26.44
2022-07-26T03:41:21.121Z,26.41
2022-07-26T03:44:00.314Z,26.41
2022-07-26T03:46:32.611Z,26.41
2022-07-26T03:49:05.021Z,26.44
2022-07-26T03:51:37.333Z,26.46
2022-07-26T03:54:08.123Z,26.44
2022-07-26T03:56:40.780Z,26.39
2022-07-26T03:59:14.177Z,26.38
2022-07-26T04:01:46.513Z,26.36
2022-07-26T04:04:19.619Z,26.36
2022-07-26T04:06:57.860Z,26.41
2022-07-26T04:09:35.828Z,26.43
2022-07-26T04:12:08.969Z,26.42
2022-07-26T04:14:42.835Z,26.42
2022-07-26T04:17:15.071Z,26.46
2022-07-26T04:19:45.602Z,26.47
2022-07-26T04:22:17.963Z,26.46
2022-07-26T04:24:48.539Z,26.49
2022-07-26T04:27:20.645Z,26.47
2022-07-26T04:29:51.296Z,26.49
2022-07-26T04:32:23.570Z,26.50
2022-07-26T04:34:54.058Z,26.53
2022-07-26T04:37:26.336Z,26.55
2022-07-26T04:39:58.652Z,26.58
2022-07-26T04:42:30.958Z,26.62
2022-07-26T04:45:08.047Z,26.69
2022-07-26T04:47:41.435Z,26.70
2022-07-26T04:50:14.730Z,26.71
2022-07-26T04:52:47.665Z,26.73
2022-07-26T04:55:18.521Z,26.75
2022-07-26T04:57:50.858Z,26.74
2022-07-26T05:00:25.192Z,26.76
2022-07-26T05:02:58.918Z,26.80
2022-07-26T05:05:33.148Z,26.81
2022-07-26T05:08:06.016Z,26.80
2022-07-26T05:10:40.024Z,26.83
2022-07-26T05:13:12.242Z,26.86
2022-07-26T05:15:42.939Z,26.90
2022-07-26T05:18:17.296Z,26.93
2022-07-26T05:20:51.916Z,26.96
2022-07-26T05:23:24.124Z,26.99
2022-07-26T05:25:57.197Z,27.00
2022-07-26T05:28:29.535Z,26.99
2022-07-26T05:31:00.186Z,26.98
2022-07-26T05:33:32.457Z,26.97
2022-07-26T05:36:05.148Z,27.02
2022-07-26T05:38:37.878Z,27.07
2022-07-26T05:41:10.328Z,27.14
2022-07-26T05:43:42.688Z,27.20
2022-07-26T05:46:16.235Z,27.24
2022-07-26T05:48:48.588Z,27.31
2022-07-26T05:51:21.121Z,27.36
2022-07-26T05:53:53.892Z,27.41
2022-07-26T05:56:26.354Z,27.50
2022-07-26T05:58:58.858Z,27.57
2022-07-26T06:01:32.920Z,27.62
2022-07-26T06:04:09.610Z,27.69
2022-07-26T06:06:42.508Z,27.78
2022-07-26T06:09:14.946Z,27.87
2022-07-26T06:11:47.370Z,27.97
2022-07-26T06:14:32.150Z,28.06
2022-07-26T06:17:05.701Z,28.16
2022-07-26T06:19:38.203Z,28.27
2022-07-26T06:22:10.550Z,28.38
2022-07-26T06:24:42.805Z,28.52
2022-07-26T06:27:15.090Z,28.58
2022-07-26T06:29:48.676Z,28.65
2022-07-26T06:32:20.936Z,28.78
2022-07-26T06:34:53.298Z,28.92
2022-07-26T06:37:25.850Z,29.00
2022-07-26T06:39:58.323Z,29.08
2022-07-26T06:42:30.807Z,29.13
2022-07-26T06:45:07.689Z,29.23
2022-07-26T06:47:40.002Z,29.32
2022-07-26T06:50:13.228Z,29.43
2022-07-26T06:52:47.946Z,29.54
2022-07-26T06:55:20.434Z,29.67
2022-07-26T06:57:52.737Z,29.79
2022-07-26T07:00:24.974Z,29.98
2022-07-26T07:02:57.210Z,30.15
2022-07-26T07:05:31.021Z,30.31
2022-07-26T07:08:03.684Z,30.48
2022-07-26T07:10:35.942Z,30.65
2022-07-26T07:13:08.333Z,30.82
2022-07-26T07:15:40.711Z,31.04
2022-07-26T07:18:13.269Z,31.24
2022-07-26T07:20:45.573Z,31.40
2022-07-26T07:23:18.020Z,31.55
2022-07-26T07:25:50.281Z,31.68
2022-07-26T07:28:23.731Z,31.85
2022-07-26T07:30:56.095Z,32.04
2022-07-26T07:33:36.712Z,32.25
2022-07-26T07:36:20.790Z,32.48
2022-07-26T07:38:53.095Z,32.69
2022-07-26T07:41:25.262Z,32.92
2022-07-26T07:43:57.578Z,33.07
2022-07-26T07:46:29.848Z,33.22
2022-07-26T07:49:02.231Z,33.32
2022-07-26T07:51:34.616Z,33.44
2022-07-26T07:54:08.891Z,33.63
2022-07-26T07:56:41.130Z,33.81
2022-07-26T07:59:15.854Z,33.97
2022-07-26T08:01:48.144Z,34.13
2022-07-26T08:04:20.421Z,34.13
2022-07-26T08:06:52.704Z,34.15
2022-07-26T08:09:26.267Z,34.11
2022-07-26T08:12:01.314Z,34.14
2022-07-26T08:14:34.500Z,34.22
2022-07-26T08:17:07.702Z,34.35
2022-07-26T08:19:41.623Z,34.48
2022-07-26T08:22:14.792Z,34.71
2022-07-26T08:24:47.097Z,34.94
2022-07-26T08:27:19.302Z,35.09
2022-07-26T08:29:51.555Z,35.27
2022-07-26T08:32:23.844Z,35.32
2022-07-26T08:34:56.211Z,35.31
2022-07-26T08:37:48.382Z,35.30
2022-07-26T08:40:21.062Z,35.54
2022-07-26T08:42:54.690Z,35.69
2022-07-26T08:45:28.026Z,35.55
2022-07-26T08:48:17.287Z,35.62
2022-07-26T08:50:50.953Z,35.85
2022-07-26T08:53:23.529Z,36.14
2022-07-26T08:56:07.765Z,36.36
2022-07-26T08:58:43.699Z,36.47
2022-07-26T09:01:17.297Z,36.59
2022-07-26T09:03:49.651Z,36.70
2022-07-26T09:06:25.497Z,36.82
2022-07-26T09:09:13.191Z,37.06
2022-07-26T09:11:45.545Z,37.23
2022-07-26T09:14:17.796Z,37.36
2022-07-26T09:17:01.103Z,37.59
2022-07-26T09:19:34.737Z,37.83
2022-07-26T09:22:15.229Z,37.70
2022-07-26T09:24:49.172Z,37.69
2022-07-26T09:27:24.160Z,37.90
2022-07-26T09:30:09.070Z,38.14
2022-07-26T09:32:41.447Z,38.33
2022-07-26T09:35:45.932Z,38.47
2022-07-26T09:38:16.867Z,38.86
2022-07-26T09:40:51.838Z,39.14
2022-07-26T09:43:24.973Z,39.42
2022-07-26T09:46:11.078Z,39.58
2022-07-26T09:49:09.540Z,39.84
2022-07-26T09:51:42.095Z,40.25
2022-07-26T09:54:18.918Z,40.43
2022-07-26T09:56:53.248Z,40.62
2022-07-26T09:59:26.957Z,40.72
2022-07-26T10:02:00.537Z,40.68
2022-07-26T10:04:32.869Z,40.43
2022-07-26T10:07:06.019Z,40.10
2022-07-26T10:09:43.440Z,40.06
2022-07-26T10:12:18.764Z,40.00
2022-07-26T10:14:52.322Z,40.03
2022-07-26T10:17:43.836Z,40.03
2022-07-26T10:20:55.966Z,39.76
2022-07-26T10:23:40.058Z,39.76
2022-07-26T10:26:15.401Z,40.20
2022-07-26T10:28:47.753Z,40.61
2022-07-26T10:31:33.263Z,40.78
2022-07-26T10:34:06.615Z,40.74
2022-07-26T10:36:40.887Z,40.54
2022-07-26T10:39:18.203Z,40.49
2022-07-26T10:41:59.451Z,40.69
2022-07-26T10:44:33.022Z,40.94
2022-07-26T10:47:18.856Z,41.22
2022-07-26T10:49:59.520Z,41.41
2022-07-26T10:52:32.932Z,41.21
2022-07-26T10:55:12.632Z,40.83
2022-07-26T10:57:46.489Z,40.85
2022-07-26T11:00:27.673Z,40.76
2022-07-26T11:03:02.566Z,40.79
2022-07-26T11:05:35.997Z,40.61
2022-07-26T11:08:11.824Z,40.69
2022-07-26T11:10:46.359Z,40.81
2022-07-26T11:13:27.280Z,40.87
2022-07-26T11:16:05.867Z,40.90
2022-07-26T11:18:40.408Z,40.96
2022-07-26T11:21:17.557Z,41.14
2022-07-26T11:23:52.189Z,41.43
2022-07-26T11:26:24.760Z,41.42
2022-07-26T11:29:06.276Z,41.07
2022-07-26T11:31:58.683Z,41.09
2022-07-26T11:34:36.329Z,41.20
2022-07-26T11:37:08.992Z,41.49
2022-07-26T11:39:42.195Z,41.89
2022-07-26T11:42:19.805Z,42.22
2022-07-26T11:44:54.209Z,42.25
2022-07-26T11:47:28.733Z,42.58
2022-07-26T11:50:18.276Z,43.00
2022-07-26T11:52:55.858Z,43.16
2022-07-26T11:55:32.717Z,43.00
2022-07-26T11:58:09.294Z,43.32
2022-07-26T12:00:41.993Z,43.36
2022-07-26T12:03:19.940Z,43.10
2022-07-26T12:06:07.477Z,42.70
2022-07-26T12:08:45.466Z,42.14
2022-07-26T12:11:19.403Z,41.67
2022-07-26T12:14:03.716Z,41.52
2022-07-26T12:16:47.682Z,41.87
2022-07-26T12:19:32.591Z,42.19
2022-07-26T12:22:13.422Z,42.45
2022-07-26T12:24:57.158Z,42.59
2022-07-26T12:27:33.097Z,42.63
2022-07-26T12:30:19.385Z,42.88
2022-07-26T12:32:54.693Z,42.95
2022-07-26T12:35:35.482Z,42.63
2022-07-26T12:38:09.456Z,42.63
2022-07-26T12:40:44.543Z,42.88
2022-07-26T12:43:17.093Z,42.82
2022-07-26T12:45:49.436Z,42.54
2022-07-26T12:48:22.319Z,42.39
2022-07-26T12:50:54.624Z,42.05
2022-07-26T12:53:27.358Z,41.79
2022-07-26T12:56:01.241Z,41.38
2022-07-26T12:58:33.466Z,41.09
2022-07-26T13:01:10.580Z,40.99
2022-07-26T13:03:43.004Z,41.01
2022-07-26T13:06:15.372Z,40.99
2022-07-26T13:08:47.900Z,40.93
2022-07-26T13:11:20.840Z,41.03
2022-07-26T13:13:53.515Z,41.36
2022-07-26T13:16:27.257Z,41.69
2022-07-26T13:19:02.182Z,42.12
2022-07-26T13:21:35.486Z,42.48
2022-07-26T13:24:11.533Z,42.82
2022-07-26T13:26:46.337Z,43.17
2022-07-26T13:29:18.794Z,43.49
2022-07-26T13:31:51.825Z,43.77
2022-07-26T13:34:31.662Z,43.93
2022-07-26T13:37:08.334Z,43.95
2022-07-26T13:39:44.096Z,43.93
2022-07-26T13:42:17.509Z,43.81
2022-07-26T13:44:49.915Z,43.56
2022-07-26T13:47:22.223Z,43.17
2022-07-26T13:49:54.633Z,43.13
2022-07-26T13:52:26.951Z,43.35
2022-07-26T13:54:59.396Z,43.62
2022-07-26T13:57:48.052Z,43.74
2022-07-26T14:00:24.539Z,43.73
2022-07-26T14:02:57.440Z,43.92
2022-07-26T14:05:30.447Z,44.09
2022-07-26T14:08:04.031Z,43.64
2022-07-26T14:10:39.960Z,42.95
2022-07-26T14:13:12.275Z,42.29
2022-07-26T14:15:44.642Z,41.67
2022-07-26T14:18:17.956Z,41.27
2022-07-26T14:20:51.738Z,40.98
2022-07-26T14:23:24.072Z,40.66
2022-07-26T14:25:56.453Z,40.58
2022-07-26T14:28:32.426Z,40.65
2022-07-26T14:31:04.924Z,40.83
2022-07-26T14:33:37.461Z,41.03
2022-07-26T14:36:13.354Z,41.25
2022-07-26T14:38:46.315Z,41.43
2022-07-26T14:41:20.113Z,41.55
2022-07-26T14:43:55.600Z,41.70
2022-07-26T14:46:28.883Z,42.08
2022-07-26T14:49:03.745Z,42.32
2022-07-26T14:51:36.295Z,42.44
2022-07-26T14:54:09.735Z,42.43
2022-07-26T14:56:42.387Z,42.17
2022-07-26T14:59:14.855Z,42.05
2022-07-26T15:01:53.836Z,41.90
2022-07-26T15:04:30.897Z,41.65
2022-07-26T15:07:14.374Z,41.39
2022-07-26T15:09:46.885Z,41.26
2022-07-26T15:12:20.614Z,40.87
2022-07-26T15:14:53.133Z,40.66
2022-07-26T15:17:26.237Z,40.47
2022-07-26T15:19:58.631Z,40.50
2022-07-26T15:22:30.987Z,40.57
2022-07-26T15:25:07.391Z,40.52
2022-07-26T15:27:39.862Z,40.30
2022-07-26T15:30:14.731Z,40.08
2022-07-26T15:32:47.631Z,39.98
2022-07-26T15:35:20.037Z,39.99
2022-07-26T15:37:52.274Z,40.03
2022-07-26T15:40:24.530Z,39.87
2022-07-26T15:42:56.882Z,39.57
2022-07-26T15:45:32.731Z,39.38
2022-07-26T15:48:16.057Z,39.23
2022-07-26T15:50:52.253Z,39.04
2022-07-26T15:53:25.939Z,38.82
2022-07-26T15:55:59.331Z,38.56
2022-07-26T15:58:33.031Z,38.55
2022-07-26T16:01:05.892Z,38.54
2022-07-26T16:03:38.857Z,38.45
2022-07-26T16:06:11.156Z,38.51
2022-07-26T16:09:13.421Z,38.38
2022-07-26T16:11:36.318Z,38.20
2022-07-26T16:14:08.866Z,38.07
2022-07-26T16:16:41.202Z,38.04
2022-07-26T16:19:16.091Z,38.04
2022-07-26T16:21:49.536Z,38.02
2022-07-26T16:24:21.866Z,37.91
2022-07-26T16:26:54.284Z,37.82
2022-07-26T16:29:26.640Z,37.70
2022-07-26T16:31:58.943Z,37.56
2022-07-26T16:34:34.921Z,37.47
2022-07-26T16:37:07.637Z,37.46
2022-07-26T16:39:39.946Z,37.50
2022-07-26T16:42:12.295Z,37.43
2022-07-26T16:44:44.770Z,37.38
2022-07-26T16:47:17.024Z,37.29
2022-07-26T16:49:49.685Z,37.18
2022-07-26T16:52:22.977Z,37.12
2022-07-26T16:54:55.238Z,37.04
2022-07-26T16:57:27.664Z,37.08
2022-07-26T16:59:59.958Z,37.07
2022-07-26T17:02:32.296Z,37.07
2022-07-26T17:05:05.217Z,37.13
2022-07-26T17:07:37.809Z,37.09
2022-07-26T17:10:12.578Z,37.10
2022-07-26T17:12:45.757Z,37.11
2022-07-26T17:15:19.976Z,37.13
2022-07-26T17:17:52.299Z,37.16
2022-07-26T17:20:24.907Z,37.14
2022-07-26T17:22:57.298Z,37.06
2022-07-26T17:25:29.780Z,36.96
2022-07-26T17:28:04.111Z,36.91
2022-07-26T17:30:36.866Z,36.89
2022-07-26T17:33:10.661Z,36.89
2022-07-26T17:35:43.958Z,36.90
2022-07-26T17:38:16.281Z,36.87
2022-07-26T17:40:49.562Z,36.82
2022-07-26T17:43:21.901Z,36.79
2022-07-26T17:45:54.264Z,36.78
2022-07-26T17:48:26.567Z,36.76
2022-07-26T17:50:58.909Z,36.73
2022-07-26T17:53:34.040Z,36.70
2022-07-26T17:56:07.882Z,36.65
2022-07-26T17:58:41.545Z,36.54
2022-07-26T18:01:14.028Z,36.45
2022-07-26T18:03:46.461Z,36.39
2022-07-26T18:06:19.075Z,36.33
2022-07-26T18:08:51.317Z,36.25
2022-07-26T18:11:23.639Z,36.17
2022-07-26T18:13:55.912Z,36.11
2022-07-26T18:16:28.432Z,36.06
2022-07-26T18:19:00.850Z,35.96
2022-07-26T18:21:33.158Z,35.83
2022-07-26T18:24:16.851Z,35.77
2022-07-26T18:26:49.905Z,35.67
2022-07-26T18:29:23.484Z,35.58
2022-07-26T18:32:00.579Z,35.44
2022-07-26T18:34:33.303Z,35.33
2022-07-26T18:37:06.365Z,35.27
2022-07-26T18:39:38.666Z,35.22
2022-07-26T18:42:11.199Z,35.18
2022-07-26T18:44:43.517Z,35.13
2022-07-26T18:47:15.828Z,35.07
2022-07-26T18:49:48.131Z,34.99
2022-07-26T18:52:31.912Z,34.90
2022-07-26T18:55:08.067Z,34.82
2022-07-26T18:57:41.247Z,34.76
2022-07-26T19:00:17.317Z,34.68
2022-07-26T19:02:52.217Z,34.60
2022-07-26T19:05:26.415Z,34.54
2022-07-26T19:08:07.706Z,34.50
2022-07-26T19:10:39.889Z,34.44
2022-07-26T19:13:12.115Z,34.34
2022-07-26T19:15:44.400Z,34.23
2022-07-26T19:18:17.097Z,34.15
2022-07-26T19:20:49.318Z,34.06
2022-07-26T19:23:21.563Z,34.00
2022-07-26T19:25:53.789Z,33.96
2022-07-26T19:28:26.105Z,33.90
2022-07-26T19:30:58.476Z,33.85
2022-07-26T19:33:30.877Z,33.79
2022-07-26T19:36:03.078Z,33.76
2022-07-26T19:38:35.353Z,33.70
2022-07-26T19:41:10.540Z,33.63
2022-07-26T19:43:46.387Z,33.53
2022-07-26T19:46:18.749Z,33.43
2022-07-26T19:48:51.316Z,33.35
2022-07-26T19:51:23.686Z,33.31
2022-07-26T19:53:55.942Z,33.27
2022-07-26T19:56:28.357Z,33.24
2022-07-26T19:59:01.888Z,33.20
2022-07-26T20:01:34.194Z,33.12
2022-07-26T20:04:07.488Z,33.07
2022-07-26T20:06:39.777Z,33.02
2022-07-26T20:09:12.282Z,32.99
2022-07-26T20:11:50.852Z,32.96
2022-07-26T20:14:23.563Z,32.88
2022-07-26T20:16:58.268Z,32.85
2022-07-26T20:19:30.630Z,32.82
2022-07-26T20:22:04.109Z,32.78
2022-07-26T20:24:38.336Z,32.75
2022-07-26T20:27:10.645Z,32.72
2022-07-26T20:29:42.935Z,32.66
2022-07-26T20:32:15.303Z,32.59
2022-07-26T20:34:47.571Z,32.55
2022-07-26T20:37:19.833Z,32.50
2022-07-26T20:39:52.174Z,32.46
2022-07-26T20:42:24.616Z,32.43
2022-07-26T20:44:57.163Z,32.42
2022-07-26T20:47:29.967Z,32.40
2022-07-26T20:50:03.635Z,32.38
2022-07-26T20:52:36.160Z,32.36
2022-07-26T20:55:10.059Z,32.32
2022-07-26T20:57:42.736Z,32.27
2022-07-26T21:00:17.385Z,32.22
2022-07-26T21:02:49.967Z,32.17
2022-07-26T21:05:22.694Z,32.11
2022-07-26T21:07:59.500Z,32.07
2022-07-26T21:10:32.268Z,32.02
2022-07-26T21:13:04.480Z,31.98
2022-07-26T21:15:36.758Z,31.94
2022-07-26T21:18:09.686Z,31.92
2022-07-26T21:20:44.706Z,31.90
2022-07-26T21:23:19.045Z,31.88
2022-07-26T21:25:58.238Z,31.85
2022-07-26T21:28:33.049Z,31.79
2022-07-26T21:31:05.442Z,31.74
2022-07-26T21:33:37.632Z,31.72
2022-07-26T21:36:10.050Z,31.69
2022-07-26T21:38:42.471Z,31.67
2022-07-26T21:41:14.835Z,31.61
2022-07-26T21:43:47.173Z,31.55
2022-07-26T21:46:19.539Z,31.48
2022-07-26T21:48:51.921Z,31.46
2022-07-26T21:51:24.185Z,31.49
2022-07-26T21:53:57.345Z,31.50
2022-07-26T21:56:30.092Z,31.50
2022-07-26T21:59:02.372Z,31.51
2022-07-26T22:01:35.409Z,31.51
2022-07-26T22:04:07.964Z,31.50
2022-07-26T22:06:40.329Z,31.50
2022-07-26T22:09:12.852Z,31.50
2022-07-26T22:11:45.384Z,31.48
2022-07-26T22:14:17.643Z,31.47
2022-07-26T22:16:49.904Z,31.44
2022-07-26T22:19:22.143Z,31.45
2022-07-26T22:21:54.390Z,31.44
2022-07-26T22:24:26.671Z,31.42
2022-07-26T22:26:58.844Z,31.40
2022-07-26T22:29:38.912Z,31.37
2022-07-26T22:32:12.692Z,31.34
2022-07-26T22:34:44.978Z,31.31
2022-07-26T22:37:17.288Z,31.31
2022-07-26T22:39:49.600Z,31.32
2022-07-26T22:42:21.836Z,31.32
2022-07-26T22:44:54.082Z,31.32
2022-07-26T22:47:26.359Z,31.32
2022-07-26T22:49:58.559Z,31.29
2022-07-26T22:52:30.878Z,31.26
2022-07-26T22:55:03.232Z,31.21
2022-07-26T22:57:35.711Z,31.15
2022-07-26T23:00:10.564Z,31.09
2022-07-26T23:02:42.761Z,31.06
2022-07-26T23:05:15.256Z,31.02
2022-07-26T23:07:48.095Z,30.98
2022-07-26T23:10:20.634Z,30.94
2022-07-26T23:12:55.412Z,30.90
2022-07-26T23:15:27.676Z,30.87
2022-07-26T23:17:59.861Z,30.83
2022-07-26T23:20:32.384Z,30.82
2022-07-26T23:23:04.819Z,30.83
2022-07-26T23:25:37.112Z,30.81
2022-07-26T23:28:09.539Z,30.80
2022-07-26T23:30:57.039Z,30.80
2022-07-26T23:33:53.534Z,30.74
2022-07-26T23:36:19.841Z,30.71
2022-07-26T23:38:52.115Z,30.60
2022-07-26T23:41:24.808Z,30.56
2022-07-26T23:43:57.445Z,30.55
2022-07-26T23:46:29.784Z,30.52
2022-07-26T23:49:04.168Z,30.48
2022-07-26T23:51:36.503Z,30.42
2022-07-26T23:54:08.850Z,30.29
2022-07-26T23:56:41.046Z,30.19
2022-07-26T23:59:13.677Z,30.14
